Time;durP1;ratioP1;P1;durP2;ratioP2;P2;SDS_P1;SDS_P2;PMS_P1;PMS_P2;Temp;Humidity;BMP_temperature;BMP_pressure;BME280_temperature;BME280_humidity;BME280_pressure;Samples;Min_cycle;Max_cycle;Signal;HPM_P1;HPM_P2
2021/12/16 00:03:29;;;;;;;15.30;13.63;;;4.70;99.90;;;5.52;94.94;99650.88;5180005;28;20563;-62
2021/12/16 00:06:35;;;;;;;14.13;12.67;;;4.70;99.90;;;5.47;94.99;99653.66;5183804;28;20713;-62
2021/12/16 00:09:04;;;;;;;14.63;12.07;;;4.70;99.90;;;5.40;95.53;99660.59;5184878;28;20233;-62
2021/12/16 00:31:57;;;;;;;14.30;12.80;;;4.60;99.90;;;5.24;95.93;99657.19;5186470;28;20194;-63
2021/12/16 00:34:32;;;;;;;14.30;12.30;;;4.60;99.90;;;5.28;96.22;99653.34;5186327;28;20191;-63
2021/12/16 00:37:05;;;;;;;14.17;12.60;;;4.60;99.90;;;5.28;96.37;99648.25;5185857;28;20198;-62
2021/12/16 00:39:41;;;;;;;13.10;11.80;;;4.60;99.90;;;5.28;96.38;99644.09;5185006;28;20222;-62
2021/12/16 00:42:29;;;;;;;14.33;12.80;;;4.60;99.90;;;5.34;95.73;99644.75;5186825;28;20190;-62
2021/12/16 00:48:00;;;;;;;14.97;12.90;;;4.60;99.90;;;5.30;96.08;99647.69;5179197;28;20221;-62
2021/12/16 00:56:17;;;;;;;15.67;12.80;;;4.60;99.90;;;5.29;96.99;99645.88;5184164;28;20209;-62
2021/12/16 00:58:55;;;;;;;13.63;12.07;;;4.60;99.90;;;5.27;96.82;99641.41;5185694;28;20722;-61
2021/12/16 01:01:41;;;;;;;12.80;11.40;;;4.60;99.90;;;5.27;97.02;99646.47;5184624;28;20191;-62
2021/12/16 01:04:50;;;;;;;14.37;11.83;;;4.60;99.90;;;5.24;96.96;99652.13;5185017;28;20286;-62
2021/12/16 01:07:51;;;;;;;14.20;11.60;;;4.50;99.90;;;5.20;96.50;99647.44;5184329;28;20194;-62
2021/12/16 01:33:43;;;;;;;13.60;12.20;;;4.50;99.90;;;5.25;96.92;99686.84;5184515;28;20681;-62
2021/12/16 01:36:34;;;;;;;15.23;12.80;;;4.60;99.90;;;5.29;96.97;99691.50;5182552;28;20554;-61
2021/12/16 01:45:38;;;;;;;16.20;13.63;;;4.50;99.90;;;5.20;96.86;99680.41;5133712;28;20202;-62
2021/12/16 01:48:52;;;;;;;14.67;12.57;;;4.50;99.90;;;5.11;96.81;99680.31;5141628;28;20571;-62
2021/12/16 01:51:21;;;;;;;16.30;13.23;;;4.40;99.90;;;5.04;97.21;99685.47;5179607;28;20225;-63
2021/12/16 01:57:23;;;;;;;15.70;13.00;;;4.40;99.90;;;5.06;97.58;99681.44;5333400;27;20596;-62
2021/12/16 02:00:03;;;;;;;15.43;12.97;;;4.30;99.90;;;5.02;97.48;99674.25;5303082;27;20218;-62
2021/12/16 02:02:44;;;;;;;16.43;13.37;;;4.30;99.90;;;5.08;97.96;99681.63;5304026;28;20202;-62
2021/12/16 02:05:32;;;;;;;16.67;13.47;;;4.30;99.90;;;5.00;98.39;99679.88;5296916;28;20560;-62
2021/12/16 02:08:20;;;;;;;16.70;12.80;;;4.30;99.90;;;4.96;98.61;99684.63;5302676;28;20198;-63
2021/12/16 02:11:10;;;;;;;14.83;12.07;;;4.30;99.90;;;4.98;99.15;99677.22;5304515;28;20201;-62
2021/12/16 02:28:27;;;;;;;17.23;13.73;;;4.30;99.90;;;5.04;98.78;99669.38;5295024;28;20203;-63
2021/12/16 02:34:22;;;;;;;16.50;14.27;;;4.40;99.90;;;5.03;99.25;99672.63;5296815;28;20195;-62
2021/12/16 02:36:56;;;;;;;17.63;14.47;;;4.40;99.90;;;4.92;99.21;99662.25;5297460;28;20214;-62
2021/12/16 02:39:33;;;;;;;18.80;13.80;;;4.30;99.90;;;4.90;99.38;99653.56;5299915;28;20576;-63
2021/12/16 02:42:14;;;;;;;17.83;13.67;;;4.30;99.90;;;4.99;99.53;99651.13;5304795;28;20205;-62
2021/12/16 02:50:30;;;;;;;18.33;14.00;;;4.20;99.90;;;4.99;98.89;99652.75;5299134;28;20237;-60
2021/12/16 02:53:04;;;;;;;18.20;15.60;;;4.20;99.90;;;4.94;98.90;99645.56;5300491;28;20203;-61
2021/12/16 02:55:38;;;;;;;21.37;15.83;;;4.20;99.90;;;4.89;100.00;99648.31;5298640;27;20679;-62
2021/12/16 02:58:12;;;;;;;20.03;14.90;;;4.20;99.90;;;4.94;99.88;99649.72;5295036;28;20657;-63
2021/12/16 03:00:52;;;;;;;17.63;13.27;;;4.30;99.90;;;4.95;100.00;99652.44;5303150;28;20744;-63
2021/12/16 03:03:26;;;;;;;18.57;14.70;;;4.30;99.90;;;4.97;99.66;99650.94;5292674;27;20245;-62
2021/12/16 03:06:02;;;;;;;20.23;15.03;;;4.30;99.90;;;4.88;99.11;99652.50;5297718;28;20195;-62
2021/12/16 03:08:35;;;;;;;18.23;14.23;;;4.20;99.90;;;4.89;99.60;99640.72;5287335;28;20196;-63
2021/12/16 03:11:23;;;;;;;19.10;14.47;;;4.20;99.90;;;4.85;99.29;99652.16;5290376;28;20222;-62
2021/12/16 03:14:17;;;;;;;14.80;13.20;;;4.20;99.90;;;4.86;99.00;99655.59;5290419;28;20203;-61
2021/12/16 03:17:05;;;;;;;15.97;13.43;;;4.20;99.90;;;4.77;98.74;99650.44;5286181;28;20233;-63
2021/12/16 03:19:53;;;;;;;16.57;12.77;;;4.10;99.90;;;4.82;98.46;99645.88;5289073;28;20219;-61
2021/12/16 03:22:46;;;;;;;15.87;13.00;;;4.20;99.90;;;4.80;98.32;99650.75;5290700;28;20214;-63
2021/12/16 03:25:27;;;;;;;14.87;12.00;;;4.10;99.90;;;4.79;98.09;99658.22;5288721;28;20191;-62
2021/12/16 03:36:47;;;;;;;16.33;13.23;;;4.30;99.90;;;4.93;99.14;99653.00;5274585;28;20207;-62
2021/12/16 03:39:20;;;;;;;17.07;13.73;;;4.30;99.90;;;4.95;99.54;99656.56;5288845;28;20219;-63
2021/12/16 03:41:54;;;;;;;15.63;12.70;;;4.30;99.90;;;4.95;99.50;99659.09;5289841;28;20527;-63
2021/12/16 03:44:38;;;;;;;15.87;12.63;;;4.30;99.90;;;4.90;99.32;99658.63;5287712;28;20191;-63
2021/12/16 03:47:11;;;;;;;15.57;12.83;;;4.30;99.90;;;4.89;98.63;99664.44;5278984;28;20283;-62
2021/12/16 03:49:44;;;;;;;15.87;13.13;;;4.20;99.90;;;4.91;98.06;99665.50;5282421;28;20705;-63
2021/12/16 03:52:18;;;;;;;15.53;12.37;;;4.20;99.90;;;4.94;98.07;99660.75;5290560;28;20195;-63
2021/12/16 03:54:55;;;;;;;16.37;13.03;;;4.30;99.90;;;4.98;98.83;99664.53;5288021;28;20200;-63
2021/12/16 03:57:30;;;;;;;16.37;13.50;;;4.30;99.90;;;4.95;98.59;99667.63;5285161;28;20211;-63
2021/12/16 04:00:10;;;;;;;18.60;12.90;;;4.30;99.90;;;4.92;98.58;99669.84;5283052;28;20211;-61
2021/12/16 04:02:44;;;;;;;16.53;12.60;;;4.30;99.90;;;4.93;98.31;99668.19;5283985;28;20195;-63
2021/12/16 04:05:21;;;;;;;16.67;13.37;;;4.30;99.90;;;5.00;98.28;99675.72;5279939;28;20202;-62
2021/12/16 04:07:54;;;;;;;18.03;14.30;;;4.30;99.90;;;5.00;97.52;99673.19;5287858;28;20194;-62
2021/12/16 04:10:35;;;;;;;16.30;12.17;;;4.30;99.90;;;4.99;98.25;99686.59;5288071;28;20219;-61
2021/12/16 04:13:12;;;;;;;17.77;13.80;;;4.30;99.90;;;5.04;97.81;99687.09;5290214;28;20215;-63
2021/12/16 04:15:48;;;;;;;17.30;13.30;;;4.40;99.90;;;5.08;98.42;99685.03;5289460;28;20210;-62
2021/12/16 04:18:21;;;;;;;16.47;12.70;;;4.40;99.90;;;5.08;98.36;99692.66;5281225;28;20199;-62
2021/12/16 04:20:54;;;;;;;17.27;13.53;;;4.40;99.90;;;5.13;97.88;99686.44;5287690;28;20299;-63
2021/12/16 04:23:28;;;;;;;14.80;12.90;;;4.30;99.90;;;5.20;96.88;99691.44;5285301;28;20184;-63
2021/12/16 04:26:01;;;;;;;15.00;12.90;;;4.30;99.90;;;5.19;97.01;99698.88;5288821;28;20205;-63
2021/12/16 04:28:34;;;;;;;15.77;13.23;;;4.30;99.90;;;5.20;97.05;99699.03;5282560;28;20202;-62
2021/12/16 04:31:09;;;;;;;15.70;12.63;;;4.30;99.90;;;5.19;96.89;99696.34;5289301;28;20191;-63
2021/12/16 04:33:42;;;;;;;16.30;12.60;;;4.40;99.90;;;5.16;96.96;99701.09;5287449;28;20206;-62
2021/12/16 04:36:16;;;;;;;15.97;13.13;;;4.30;99.90;;;5.18;97.56;99699.63;5281442;28;20226;-61
2021/12/16 04:38:49;;;;;;;15.97;13.20;;;4.30;99.90;;;5.20;97.58;99690.53;5288228;28;20725;-63
2021/12/16 04:41:24;;;;;;;15.47;12.47;;;4.30;99.90;;;5.24;97.62;99686.72;5288712;28;20199;-63
2021/12/16 04:43:58;;;;;;;14.93;12.30;;;4.40;99.90;;;5.20;97.33;99704.09;5282383;28;20569;-63
2021/12/16 04:46:32;;;;;;;16.67;12.40;;;4.40;99.90;;;5.22;97.64;99694.13;5286119;28;20701;-61
2021/12/16 04:49:09;;;;;;;15.07;13.03;;;4.40;99.90;;;5.29;97.08;99694.03;5280593;28;20225;-62
2021/12/16 04:51:50;;;;;;;17.03;13.70;;;4.40;99.90;;;5.29;97.21;99694.03;5285611;28;20197;-62
2021/12/16 04:54:25;;;;;;;16.27;12.97;;;4.40;99.90;;;5.25;97.78;99693.56;5286637;28;20199;-62
2021/12/16 04:57:00;;;;;;;16.23;12.83;;;4.40;99.90;;;5.24;97.42;99696.84;5279679;28;20590;-63
2021/12/16 04:59:36;;;;;;;16.93;13.37;;;4.40;99.90;;;5.10;97.50;99697.91;5288819;28;20207;-62
2021/12/16 05:02:15;;;;;;;17.07;14.20;;;4.30;99.90;;;5.15;98.63;99687.53;5280430;28;20203;-62
2021/12/16 05:04:49;;;;;;;15.67;13.20;;;4.40;99.90;;;5.14;98.12;99689.88;5284764;28;20195;-62
2021/12/16 05:07:22;;;;;;;17.67;13.60;;;4.40;99.90;;;5.14;98.27;99689.88;5282150;28;20567;-62
2021/12/16 05:10:07;;;;;;;16.20;12.73;;;4.30;99.90;;;5.19;97.84;99702.31;5275017;28;20212;-62
2021/12/16 05:12:43;;;;;;;17.33;13.77;;;4.30;99.90;;;5.18;97.94;99697.09;5279864;28;20195;-63
2021/12/16 05:15:19;;;;;;;16.33;13.10;;;4.30;99.90;;;5.11;97.56;99695.50;5284507;28;20195;-62
2021/12/16 05:17:55;;;;;;;17.07;13.20;;;4.30;99.90;;;5.20;97.24;99690.53;5276222;28;20203;-63
2021/12/16 05:20:33;;;;;;;16.63;13.43;;;4.30;99.90;;;5.22;96.54;99694.13;5283608;28;20220;-63
2021/12/16 05:26:15;;;;;;;16.93;13.40;;;4.30;99.90;;;5.14;96.59;99692.41;5279321;28;20644;-63
2021/12/16 05:28:55;;;;;;;16.20;13.23;;;4.30;99.90;;;5.24;95.88;99702.81;5284836;28;20218;-63
2021/12/16 05:31:29;;;;;;;19.10;15.13;;;4.40;99.90;;;5.30;95.77;99707.66;5284806;28;20579;-63
2021/12/16 05:34:06;;;;;;;17.70;14.07;;;4.30;99.90;;;5.26;95.92;99710.56;5280311;28;20425;-62
2021/12/16 05:36:40;;;;;;;17.63;13.57;;;4.30;99.90;;;5.18;95.85;99712.31;5281563;28;20187;-63
2021/12/16 05:39:15;;;;;;;17.53;13.37;;;4.40;99.90;;;5.19;96.08;99711.56;5286423;28;20230;-63
2021/12/16 05:41:49;;;;;;;16.47;13.07;;;4.40;99.90;;;5.20;96.64;99706.63;5282938;28;20200;-62
2021/12/16 05:44:22;;;;;;;17.43;14.53;;;4.40;99.90;;;5.15;96.66;99712.88;5284809;28;20199;-63
2021/12/16 05:46:55;;;;;;;22.60;14.43;;;4.40;99.90;;;5.19;96.56;99725.13;5286998;28;20282;-62
2021/12/16 05:49:30;;;;;;;18.60;14.20;;;4.40;99.90;;;5.14;96.24;99723.72;5287887;27;20220;-63
2021/12/16 05:52:04;;;;;;;18.70;13.90;;;4.40;99.90;;;5.17;96.55;99723.16;5286132;28;20199;-62
2021/12/16 05:54:37;;;;;;;18.70;14.20;;;4.40;99.90;;;5.17;96.82;99715.56;5287474;28;20205;-62
2021/12/16 05:57:10;;;;;;;18.20;14.50;;;4.40;99.90;;;5.20;96.44;99720.94;5286224;28;20238;-63
2021/12/16 05:59:44;;;;;;;20.13;13.73;;;4.40;99.90;;;5.11;96.69;99720.84;5285750;28;20223;-62
2021/12/16 06:02:17;;;;;;;19.77;13.77;;;4.40;99.90;;;5.12;96.96;99734.41;5285540;28;20203;-62
2021/12/16 06:04:51;;;;;;;18.50;13.90;;;4.40;99.90;;;5.14;96.63;99731.31;5290953;28;20878;-63
2021/12/16 06:07:24;;;;;;;17.83;14.23;;;4.40;99.90;;;5.16;97.13;99731.50;5289179;28;20202;-63
2021/12/16 06:09:57;;;;;;;19.73;14.33;;;4.40;99.90;;;5.16;96.74;99734.94;5281292;28;20223;-62
2021/12/16 06:12:30;;;;;;;15.70;12.53;;;4.40;99.90;;;5.18;96.60;99735.13;5280474;28;20201;-62
2021/12/16 06:15:18;;;;;;;18.23;14.03;;;4.50;99.90;;;5.21;96.75;99745.59;5282200;28;20202;-63
2021/12/16 06:26:30;;;;;;;19.30;13.50;;;4.40;99.90;;;5.16;96.61;99754.31;5273522;28;20212;-63
2021/12/16 06:29:05;;;;;;;15.73;13.10;;;4.40;99.90;;;5.14;96.22;99756.66;5278822;28;20231;-62
2021/12/16 06:31:38;;;;;;;20.63;14.90;;;4.40;99.90;;;5.19;96.38;99755.53;5282043;28;20195;-62
2021/12/16 06:34:11;;;;;;;16.97;13.37;;;4.40;99.90;;;5.21;95.71;99750.66;5287620;28;20209;-63
2021/12/16 06:36:46;;;;;;;17.83;13.73;;;4.40;99.90;;;5.20;95.77;99751.38;5285249;28;20209;-62
2021/12/16 06:39:19;;;;;;;19.27;14.40;;;4.40;99.90;;;5.19;95.94;99764.78;5276844;28;20219;-62
2021/12/16 06:41:52;;;;;;;18.10;14.50;;;4.40;99.90;;;5.19;96.02;99750.47;5278959;28;20192;-63
2021/12/16 06:44:31;;;;;;;17.63;13.60;;;4.40;99.90;;;5.20;96.64;99741.22;5289415;28;20198;-62
2021/12/16 06:47:09;;;;;;;18.70;14.43;;;4.40;99.90;;;5.21;96.25;99737.97;5288225;27;20221;-63
2021/12/16 06:49:44;;;;;;;19.27;14.33;;;4.40;99.90;;;5.22;96.39;99742.31;5291395;28;20221;-63
2021/12/16 06:52:23;;;;;;;16.50;13.30;;;4.40;99.90;;;5.21;96.22;99745.59;5289423;28;20660;-63
2021/12/16 06:55:15;;;;;;;17.10;13.53;;;4.40;99.90;;;5.17;95.79;99745.97;5287925;27;20203;-63
2021/12/16 06:57:53;;;;;;;16.70;13.30;;;4.40;99.90;;;5.20;95.61;99752.25;5283260;27;20219;-63
2021/12/16 07:00:33;;;;;;;16.33;12.60;;;4.40;99.90;;;5.15;96.30;99755.97;5286388;28;20225;-63
2021/12/16 07:03:17;;;;;;;18.23;13.87;;;4.40;99.90;;;5.05;96.13;99762.38;5281408;28;20283;-62
2021/12/16 07:05:54;;;;;;;16.80;12.80;;;4.30;99.90;;;5.08;96.65;99760.19;5280149;28;20286;-61
2021/12/16 07:08:28;;;;;;;16.03;13.83;;;4.40;99.90;;;5.17;96.39;99764.59;5284679;28;20256;-62
2021/12/16 07:11:02;;;;;;;16.73;13.80;;;4.40;99.90;;;5.16;96.22;99769.53;5282164;28;20199;-63
2021/12/16 07:13:40;;;;;;;18.57;13.77;;;4.40;99.90;;;5.12;96.66;99770.84;5280181;28;20200;-63
2021/12/16 07:16:16;;;;;;;16.83;12.87;;;4.30;99.90;;;5.22;96.18;99779.44;5283659;28;20290;-61
2021/12/16 07:18:50;;;;;;;17.47;13.70;;;4.30;99.90;;;5.20;96.46;99772.53;5281525;28;20222;-62
2021/12/16 07:21:24;;;;;;;17.80;14.30;;;4.40;99.90;;;5.30;95.91;99778.63;5286162;28;20199;-63
2021/12/16 07:23:58;;;;;;;16.73;13.60;;;4.40;99.90;;;5.28;95.33;99791.13;5282447;28;20479;-63
2021/12/16 07:26:31;;;;;;;18.03;13.73;;;4.40;99.90;;;5.21;96.11;99791.22;5275267;28;20441;-63
2021/12/16 07:29:06;;;;;;;16.37;13.23;;;4.40;99.90;;;5.20;96.82;99792.81;5276874;28;20700;-63
2021/12/16 07:31:40;;;;;;;16.40;13.17;;;4.40;99.90;;;5.25;96.42;99787.38;5288224;28;20195;-63
2021/12/16 07:34:13;;;;;;;19.50;14.20;;;4.40;99.90;;;5.22;96.91;99799.72;5286338;28;20205;-63
2021/12/16 07:36:47;;;;;;;16.73;13.17;;;4.40;99.90;;;5.19;96.62;99800.28;5281105;28;20286;-62
2021/12/16 07:39:30;;;;;;;16.87;12.87;;;4.40;99.90;;;5.22;97.49;99797.16;5287234;28;20230;-62
2021/12/16 07:42:03;;;;;;;18.97;14.03;;;4.40;99.90;;;5.20;96.63;99797.88;5277226;28;20677;-63
2021/12/16 07:44:36;;;;;;;17.90;13.60;;;4.40;99.90;;;5.21;97.43;99808.94;5285613;28;20205;-63
2021/12/16 07:47:12;;;;;;;15.90;12.27;;;4.50;99.90;;;5.23;97.51;99802.38;5284662;28;20239;-62
2021/12/16 07:49:45;;;;;;;14.97;12.23;;;4.40;99.90;;;5.25;97.07;99811.06;5281737;28;20268;-63
2021/12/16 07:52:23;;;;;;;15.23;11.97;;;4.50;99.90;;;5.29;96.68;99812.28;5284276;28;20206;-63
2021/12/16 07:54:57;;;;;;;18.03;13.47;;;4.40;99.90;;;5.26;97.35;99812.88;5280219;28;20214;-62
2021/12/16 07:57:30;;;;;;;16.70;13.27;;;4.50;99.90;;;5.27;97.22;99814.69;5281055;28;20199;-63
2021/12/16 08:00:07;;;;;;;18.47;14.20;;;4.50;99.90;;;5.34;96.81;99814.59;5288609;28;20230;-63
2021/12/16 08:02:41;;;;;;;16.50;14.20;;;4.40;99.90;;;5.36;96.76;99819.84;5291766;27;20202;-63
2021/12/16 08:05:17;;;;;;;17.60;14.83;;;4.50;99.90;;;5.28;96.67;99824.09;5289492;28;20203;-63
2021/12/16 08:07:51;;;;;;;16.50;12.80;;;4.40;99.90;;;5.22;96.84;99815.81;5288994;28;20491;-64
2021/12/16 08:10:26;;;;;;;16.53;13.03;;;4.40;99.90;;;5.28;96.47;99821.53;5286296;28;20223;-62
2021/12/16 08:12:59;;;;;;;15.70;12.83;;;4.40;99.90;;;5.25;97.05;99821.22;5289160;28;20201;-63
2021/12/16 08:15:33;;;;;;;15.47;12.20;;;4.50;99.90;;;5.27;97.09;99819.75;5282421;28;20196;-63
2021/12/16 08:18:06;;;;;;;14.23;12.00;;;4.50;99.90;;;5.28;97.09;99824.09;5289695;27;20562;-63
2021/12/16 08:20:40;;;;;;;18.00;13.40;;;4.50;99.90;;;5.23;96.51;99822.66;5288324;28;20215;-63
2021/12/16 08:23:13;;;;;;;15.93;11.93;;;4.50;99.90;;;5.28;96.59;99828.25;5270456;28;20195;-63
2021/12/16 08:25:48;;;;;;;16.03;11.70;;;4.50;99.90;;;5.31;97.02;99829.47;5268144;28;20203;-63
2021/12/16 08:28:23;;;;;;;13.13;11.13;;;4.50;99.90;;;5.34;96.87;99829.81;5281871;28;20197;-63
2021/12/16 08:30:57;;;;;;;15.70;12.73;;;4.50;99.90;;;5.38;97.04;99843.75;5284077;28;20223;-63
2021/12/16 08:33:30;;;;;;;14.87;11.73;;;4.60;99.90;;;5.45;96.76;99845.31;5268870;28;20195;-63
2021/12/16 08:36:04;;;;;;;17.53;13.97;;;4.60;99.90;;;5.45;96.60;99850.38;5275477;28;20290;-63
2021/12/16 08:38:39;;;;;;;21.20;15.20;;;4.60;99.90;;;5.44;96.33;99849.50;5276490;28;20698;-63
2021/12/16 08:41:21;;;;;;;18.27;14.53;;;4.60;99.90;;;5.42;95.89;99851.84;5273499;28;20221;-63
2021/12/16 08:43:54;;;;;;;19.17;14.60;;;4.60;99.90;;;5.35;96.15;99854.47;5278587;28;20195;-63
2021/12/16 08:46:32;;;;;;;17.53;13.57;;;4.60;99.90;;;5.41;95.83;99859.28;5289103;28;20195;-63
2021/12/16 08:49:06;;;;;;;18.83;14.07;;;4.60;99.90;;;5.50;95.50;99859.41;5288270;28;20219;-62
2021/12/16 08:51:43;;;;;;;17.57;14.13;;;4.70;99.90;;;5.51;95.40;99863.72;5287178;27;20199;-63
2021/12/16 08:54:17;;;;;;;15.27;12.93;;;4.60;99.90;;;5.50;95.58;99862.81;5285575;28;20203;-62
2021/12/16 08:56:53;;;;;;;16.73;13.07;;;4.70;99.90;;;5.55;94.99;99863.31;5284887;28;20206;-62
2021/12/16 08:59:28;;;;;;;16.20;13.03;;;4.70;99.90;;;5.55;95.30;99860.78;5278999;28;20255;-63
2021/12/16 09:02:03;;;;;;;16.73;13.23;;;4.80;99.90;;;5.60;94.54;99867.25;5284901;27;20199;-62
2021/12/16 09:04:41;;;;;;;17.13;15.20;;;4.80;99.90;;;5.62;95.03;99865.78;5280162;28;20667;-62
2021/12/16 09:07:15;;;;;;;19.17;14.57;;;4.80;99.90;;;5.62;95.25;99868.34;5280087;28;20647;-63
2021/12/16 09:09:49;;;;;;;19.03;15.07;;;4.90;99.90;;;5.65;95.32;99866.13;5272312;28;20226;-63
2021/12/16 09:12:49;;;;;;;17.60;14.13;;;4.90;99.90;;;5.64;94.60;99877.03;5281347;28;20195;-63
2021/12/16 09:15:24;;;;;;;19.37;15.07;;;4.80;99.90;;;5.65;94.85;99869.56;5282716;28;20236;-63
2021/12/16 09:17:58;;;;;;;18.37;14.20;;;4.90;99.90;;;5.73;94.35;99870.41;5276186;28;20206;-62
2021/12/16 09:20:34;;;;;;;18.97;14.37;;;5.00;99.90;;;5.76;94.95;99865.66;5278988;28;20288;-63
2021/12/16 09:23:09;;;;;;;18.40;14.80;;;5.00;99.90;;;5.78;94.71;99864.19;5281756;28;20199;-62
2021/12/16 09:25:46;;;;;;;16.33;13.67;;;5.00;99.90;;;5.77;94.46;99877.59;5281185;28;20200;-63
2021/12/16 09:28:23;;;;;;;19.60;15.37;;;4.90;99.90;;;5.79;94.37;99885.38;5284900;28;20244;-63
2021/12/16 09:30:57;;;;;;;16.97;14.37;;;5.00;99.90;;;5.82;93.74;99898.41;5283972;28;20202;-62
2021/12/16 09:33:30;;;;;;;17.60;14.53;;;5.00;99.90;;;5.82;93.68;99899.28;5284471;28;20211;-62
2021/12/16 09:36:03;;;;;;;17.20;13.57;;;5.00;99.90;;;5.78;94.25;99898.78;5280794;28;20202;-62
2021/12/16 09:38:41;;;;;;;19.53;14.20;;;5.00;99.90;;;5.80;93.78;99903.28;5282655;28;20223;-62
2021/12/16 09:41:15;;;;;;;14.73;12.73;;;5.00;99.90;;;5.85;94.26;99907.25;5286108;28;20290;-62
2021/12/16 09:43:53;;;;;;;18.73;13.87;;;5.00;99.90;;;5.92;94.46;99907.91;5280935;28;20555;-62
2021/12/16 09:46:30;;;;;;;17.70;13.37;;;5.10;99.90;;;5.97;94.38;99909.34;5283486;28;20198;-62
2021/12/16 09:49:04;;;;;;;15.57;12.03;;;5.10;99.90;;;5.96;94.19;99910.97;5276633;28;20211;-62
2021/12/16 09:51:41;;;;;;;16.83;12.87;;;5.10;99.90;;;5.99;94.69;99905.34;5277896;28;20716;-63
2021/12/16 09:54:19;;;;;;;15.37;13.50;;;5.20;99.90;;;5.96;93.17;99910.09;5282386;28;20203;-61
2021/12/16 09:56:54;;;;;;;14.73;12.47;;;5.10;99.90;;;5.94;93.79;99912.44;5283757;28;20213;-63
2021/12/16 09:59:32;;;;;;;14.53;12.47;;;5.10;99.90;;;5.88;92.15;99901.59;5277772;28;20848;-63
2021/12/16 10:02:14;;;;;;;13.80;11.40;;;5.00;99.90;;;5.93;93.21;99904.66;5279572;28;20661;-62
2021/12/16 10:04:49;;;;;;;13.80;11.47;;;5.10;99.90;;;5.95;92.79;99904.13;5280897;28;20198;-63
2021/12/16 10:07:27;;;;;;;15.67;12.80;;;5.10;99.90;;;5.93;92.40;99904.66;5277172;28;20198;-61
2021/12/16 10:10:06;;;;;;;16.77;14.57;;;5.10;99.90;;;5.92;92.42;99898.63;5274955;28;20319;-63
2021/12/16 10:12:42;;;;;;;15.13;12.97;;;5.00;99.90;;;5.93;92.44;99902.09;5282409;28;20205;-62
2021/12/16 10:18:16;;;;;;;17.53;14.63;;;5.10;99.90;;;6.12;91.99;99890.66;5284140;28;20291;-63
2021/12/16 10:20:53;;;;;;;20.77;15.07;;;5.20;99.90;;;6.10;91.54;99889.63;5279970;28;20229;-61
2021/12/16 10:23:32;;;;;;;18.00;14.13;;;5.30;99.90;;;6.14;91.52;99889.19;5284865;28;20251;-63
2021/12/16 10:26:08;;;;;;;18.57;13.20;;;5.30;99.90;;;6.15;91.41;99883.38;5284416;28;20201;-62
2021/12/16 10:28:44;;;;;;;17.17;13.80;;;5.30;99.90;;;6.21;91.62;99889.13;5284745;28;20478;-62
2021/12/16 10:31:25;;;;;;;17.73;14.63;;;5.30;99.90;;;6.19;90.81;99889.72;5285074;28;20315;-62
2021/12/16 10:34:01;;;;;;;16.47;13.20;;;5.30;99.90;;;6.19;90.42;99885.53;5284888;28;20206;-62
2021/12/16 10:36:37;;;;;;;16.50;13.37;;;5.30;99.90;;;6.30;90.70;99881.59;5284433;28;20188;-61
2021/12/16 10:39:16;;;;;;;15.70;13.27;;;5.40;99.90;;;6.24;90.32;99884.38;5284150;28;20215;-61
2021/12/16 10:41:52;;;;;;;17.07;13.63;;;5.40;99.90;;;6.25;89.62;99880.19;5289008;28;20206;-63
2021/12/16 10:44:29;;;;;;;16.53;13.70;;;5.30;99.90;;;6.27;90.36;99881.28;5280479;28;20625;-62
2021/12/16 10:47:12;;;;;;;15.90;12.70;;;5.40;99.90;;;6.31;90.55;99884.28;5289076;28;20285;-63
2021/12/16 10:49:51;;;;;;;14.80;11.73;;;5.40;99.90;;;6.37;89.89;99894.19;5284865;28;20310;-62
2021/12/16 10:52:28;;;;;;;15.77;12.40;;;5.50;99.90;;;6.41;89.66;99890.31;5285445;28;20201;-62
2021/12/16 10:55:01;;;;;;;16.30;13.23;;;5.50;99.90;;;6.41;89.83;99877.63;5289228;28;20841;-62
2021/12/16 10:57:35;;;;;;;16.63;13.23;;;5.50;99.90;;;6.45;89.47;99879.78;5287837;28;20213;-63
2021/12/16 11:00:12;;;;;;;16.97;13.20;;;5.50;99.90;;;6.42;89.83;99879.44;5284425;28;20230;-63
2021/12/16 11:02:48;;;;;;;17.00;13.70;;;5.60;99.90;;;6.41;89.28;99886.19;5282629;28;20199;-62
2021/12/16 11:05:27;;;;;;;15.20;13.13;;;5.50;99.90;;;6.37;88.68;99881.50;5289391;28;20198;-63
2021/12/16 11:08:00;;;;;;;14.23;11.93;;;5.50;99.90;;;6.39;89.81;99881.66;5286202;28;20199;-62
2021/12/16 11:10:37;;;;;;;15.27;12.97;;;5.50;99.90;;;6.37;89.80;99883.13;5288925;28;20221;-62
2021/12/16 11:13:14;;;;;;;15.87;12.57;;;5.50;99.90;;;6.39;90.52;99884.22;5287179;28;20252;-62
2021/12/16 11:15:52;;;;;;;15.37;12.60;;;5.60;99.90;;;6.39;89.86;99884.22;5291351;28;20294;-63
2021/12/16 11:18:28;;;;;;;13.77;11.90;;;5.60;99.90;;;6.47;89.59;99888.47;5290018;28;20192;-62
2021/12/16 11:21:05;;;;;;;14.77;12.87;;;5.60;99.90;;;6.50;88.91;99882.06;5279801;28;20211;-62
2021/12/16 11:23:41;;;;;;;15.67;12.70;;;5.60;99.90;;;6.50;89.15;99882.06;5289423;28;20195;-63
2021/12/16 11:26:18;;;;;;;15.00;12.80;;;5.60;99.90;;;6.50;89.95;99887.13;5288923;28;20199;-62
2021/12/16 11:28:53;;;;;;;16.07;13.20;;;5.60;99.90;;;6.50;89.42;99881.16;5281878;28;20257;-63
2021/12/16 11:31:30;;;;;;;15.70;12.57;;;5.60;99.90;;;6.53;89.01;99877.31;5288675;28;20664;-63
2021/12/16 11:34:09;;;;;;;13.77;12.23;;;5.60;99.90;;;6.53;88.72;99878.94;5287730;28;20198;-63
2021/12/16 11:36:46;;;;;;;14.23;12.73;;;5.70;99.90;;;6.59;89.14;99873.59;5289731;28;20191;-62
2021/12/16 11:39:23;;;;;;;14.90;11.53;;;5.70;99.90;;;6.69;89.30;99872.16;5287563;28;20229;-63
2021/12/16 11:42:00;;;;;;;13.60;10.87;;;5.80;99.90;;;6.64;89.13;99865.72;5288190;28;20226;-63
2021/12/16 11:44:38;;;;;;;12.57;10.80;;;5.80;99.90;;;6.65;88.94;99875.13;5287765;28;20199;-63
2021/12/16 11:47:19;;;;;;;12.27;11.00;;;5.70;99.90;;;6.67;89.06;99872.78;5285870;28;20198;-62
2021/12/16 11:50:01;;;;;;;13.80;11.57;;;5.80;99.90;;;6.65;88.36;99862.44;5287502;28;20222;-62
2021/12/16 11:52:39;;;;;;;12.87;11.57;;;5.70;99.90;;;6.59;88.81;99874.50;5273168;28;20195;-62
2021/12/16 11:55:16;;;;;;;13.20;11.80;;;5.70;99.90;;;6.58;88.58;99871.78;5280630;28;20215;-62
2021/12/16 11:57:54;;;;;;;12.70;11.40;;;5.70;99.90;;;6.54;88.25;99885.81;5282624;28;20570;-63
2021/12/16 12:00:33;;;;;;;13.00;11.63;;;5.60;99.90;;;6.59;88.90;99889.75;5280952;28;20237;-63
2021/12/16 12:03:10;;;;;;;14.50;12.90;;;5.70;99.90;;;6.62;88.53;99879.91;5286112;28;20203;-63
2021/12/16 12:05:47;;;;;;;13.63;11.97;;;5.70;99.90;;;6.64;88.41;99874.97;5280880;28;20681;-63
2021/12/16 12:08:23;;;;;;;13.00;10.70;;;5.70;99.90;;;6.68;88.94;99878.00;5280973;28;20281;-63
2021/12/16 12:11:00;;;;;;;14.10;12.33;;;5.80;99.90;;;6.73;88.62;99873.41;5283931;28;20205;-63
2021/12/16 12:13:37;;;;;;;14.13;11.93;;;5.90;99.90;;;6.74;88.77;99873.56;5284736;28;20238;-62
2021/12/16 12:16:15;;;;;;;13.00;11.47;;;5.80;99.90;;;6.74;88.38;99868.47;5287965;28;20207;-62
2021/12/16 12:18:53;;;;;;;13.27;11.87;;;5.80;99.90;;;6.80;88.58;99870.75;5275968;28;20222;-63
2021/12/16 12:21:36;;;;;;;16.03;14.33;;;5.80;99.90;;;6.87;88.15;99862.16;5281242;28;20225;-63
2021/12/16 12:24:15;;;;;;;15.33;13.73;;;5.90;99.90;;;6.93;87.08;99863.66;5280791;28;20191;-62
2021/12/16 12:26:53;;;;;;;18.73;15.60;;;5.90;99.90;;;6.93;87.35;99862.78;5280027;28;20467;-63
2021/12/16 12:29:31;;;;;;;19.20;17.10;;;5.90;99.90;;;6.97;86.91;99858.16;5269322;28;20231;-63
2021/12/16 12:32:10;;;;;;;14.17;11.50;;;6.00;99.90;;;6.95;86.45;99862.19;5282668;28;20281;-63
2021/12/16 12:34:47;;;;;;;12.60;11.20;;;5.90;99.90;;;6.98;86.04;99849.81;5279949;28;20191;-62
2021/12/16 12:37:24;;;;;;;11.97;10.73;;;6.00;99.90;;;6.97;86.53;99844.53;5275131;28;20198;-63
2021/12/16 12:40:03;;;;;;;15.07;13.07;;;6.00;99.90;;;7.00;86.11;99835.59;5279034;28;20565;-63
2021/12/16 12:42:37;;;;;;;16.63;13.50;;;6.00;99.90;;;7.05;86.38;99832.63;5284099;28;20213;-62
2021/12/16 12:45:15;;;;;;;13.30;11.90;;;6.10;99.90;;;7.01;86.17;99833.97;5280095;28;20207;-62
2021/12/16 12:47:53;;;;;;;14.90;12.77;;;6.00;99.90;;;7.05;86.06;99833.53;5275553;28;20286;-63
2021/12/16 12:50:29;;;;;;;15.00;12.93;;;6.10;99.90;;;7.00;86.42;99832.16;5284313;28;20646;-62
2021/12/16 12:53:15;;;;;;;14.17;11.87;;;6.10;99.90;;;6.94;86.29;99834.06;5282036;28;20211;-63